Time;durP1;ratioP1;P1;durP2;ratioP2;P2;SDS_P1;SDS_P2;PMS_P1;PMS_P2;Temp;Humidity;BMP_temperature;BMP_pressure;BME280_temperature;BME280_humidity;BME280_pressure;Samples;Min_cycle;Max_cycle;Signal;HPM_P1;HPM_P2
2023/09/18 00:00:56;;;;;;;3.08;2.88;;;;;;;21.61;93.61;97483.72;5034065;28;20198;-73
2023/09/18 00:03:24;;;;;;;2.88;2.67;;;;;;;21.59;93.79;97488.63;5037180;28;20210;-73
2023/09/18 00:05:51;;;;;;;3.42;2.70;;;;;;;21.55;94.31;97487.63;5037100;28;20248;-73
2023/09/18 00:08:19;;;;;;;3.20;2.90;;;;;;;21.54;96.10;97480.63;5036999;28;20222;-73
2023/09/18 00:10:51;;;;;;;4.03;2.78;;;;;;;21.47;96.24;97483.72;5036940;28;20268;-73
2023/09/18 00:13:17;;;;;;;3.00;2.72;;;;;;;21.38;99.81;97485.53;5019498;28;20186;-73
2023/09/18 00:15:47;;;;;;;4.22;2.85;;;;;;;21.42;98.85;97483.84;5036966;28;20212;-73
2023/09/18 00:18:18;;;;;;;6.83;3.23;;;;;;;21.38;97.53;97487.44;5036835;28;20230;-73
2023/09/18 00:20:46;;;;;;;4.65;3.10;;;;;;;21.41;96.70;97473.31;5036906;28;20186;-73
2023/09/18 00:23:12;;;;;;;3.67;2.90;;;;;;;21.23;99.94;97474.22;5036861;28;20202;-73
2023/09/18 00:25:41;;;;;;;3.30;2.67;;;;;;;21.27;98.89;97464.41;5036791;28;20206;-73
2023/09/18 00:28:07;;;;;;;3.13;2.60;;;;;;;21.28;99.00;97466.81;5036547;28;20226;-73
2023/09/18 00:30:33;;;;;;;3.00;2.80;;;;;;;21.31;98.00;97441.88;5036550;28;20233;-73
2023/09/18 00:33:00;;;;;;;3.07;2.50;;;;;;;21.35;97.86;97450.97;5036633;28;20210;-73
2023/09/18 00:35:26;;;;;;;3.10;2.80;;;;;;;21.39;98.42;97443.84;5036816;28;20210;-73
2023/09/18 00:37:53;;;;;;;4.33;2.90;;;;;;;21.32;99.39;97450.78;5036442;28;20272;-73
2023/09/18 00:40:20;;;;;;;5.53;3.00;;;;;;;21.30;99.20;97434.84;5036648;28;20331;-73
2023/09/18 00:42:46;;;;;;;3.53;3.07;;;;;;;21.32;99.44;97437.25;5036310;28;20214;-73
2023/09/18 00:45:12;;;;;;;4.40;2.97;;;;;;;21.33;99.42;97442.38;5036196;28;20236;-73
2023/09/18 00:47:39;;;;;;;3.37;2.90;;;;;;;21.25;100.00;97439.59;5036223;28;20229;-73
2023/09/18 00:50:09;;;;;;;3.33;3.03;;;;;;;21.22;100.00;97432.06;5036222;28;20226;-73
2023/09/18 00:52:35;;;;;;;4.13;3.40;;;;;;;21.29;100.00;97435.97;5036293;28;20228;-73
2023/09/18 00:55:02;;;;;;;3.37;3.07;;;;;;;21.25;100.00;97434.97;5036035;28;20212;-73
2023/09/18 00:57:29;;;;;;;3.60;3.13;;;;;;;21.21;100.00;97438.59;5035943;28;20252;-73
2023/09/18 00:59:56;;;;;;;4.80;3.07;;;;;;;21.28;100.00;97433.56;5035913;28;20529;-73
2023/09/18 01:02:22;;;;;;;4.10;3.17;;;;;;;21.31;99.94;97428.38;5035804;28;20567;-73
2023/09/18 01:04:50;;;;;;;3.87;3.53;;;;;;;21.43;98.88;97419.75;5036041;28;20210;-73
2023/09/18 01:07:18;;;;;;;5.97;3.40;;;;;;;21.54;97.50;97415.69;5035970;28;20228;-73
2023/09/18 01:09:44;;;;;;;3.70;3.40;;;;;;;21.49;100.00;97415.81;5035912;28;20309;-73
2023/09/18 01:12:28;;;;;;;4.20;3.30;;;;;;;21.42;100.00;97412.72;5035561;28;20205;-73
2023/09/18 01:15:08;;;;;;;4.40;4.00;;;;;;;21.39;99.89;97411.41;5035864;28;20186;-73
2023/09/18 01:17:40;;;;;;;5.03;3.10;;;;;;;21.45;99.89;97410.22;5035736;28;20226;-73
2023/09/18 01:20:07;;;;;;;4.60;3.23;;;;;;;21.44;99.64;97413.22;5036000;28;20202;-73
2023/09/18 01:22:33;;;;;;;4.83;3.27;;;;;;;21.38;100.00;97415.22;5035704;28;20205;-73
2023/09/18 01:24:59;;;;;;;3.80;3.50;;;;;;;21.38;100.00;97417.94;5035630;28;20296;-73
2023/09/18 01:27:26;;;;;;;3.80;3.40;;;;;;;21.36;100.00;97428.25;5035471;28;20226;-73
2023/09/18 01:29:53;;;;;;;4.47;3.30;;;;;;;21.50;98.89;97415.50;5035492;28;20701;-73
2023/09/18 01:32:19;;;;;;;5.07;3.07;;;;;;;21.52;98.66;97420.63;5035522;28;20256;-73
2023/09/18 01:34:52;;;;;;;5.10;3.37;;;;;;;21.53;100.00;97419.50;5035505;28;20209;-73
2023/09/18 01:37:22;;;;;;;3.70;3.13;;;;;;;21.42;100.00;97420.81;5035048;28;20597;-73
2023/09/18 01:39:51;;;;;;;3.10;2.83;;;;;;;21.66;97.82;97411.34;5035358;28;20760;-73
2023/09/18 01:42:18;;;;;;;6.07;3.10;;;;;;;21.67;99.29;97412.97;5035324;28;20328;-73
2023/09/18 01:44:45;;;;;;;4.77;2.87;;;;;;;21.80;95.63;97422.19;5035485;28;20206;-73
2023/09/18 01:47:15;;;;;;;3.27;2.47;;;;;;;21.90;94.04;97435.47;5035147;28;20212;-73
2023/09/18 01:49:42;;;;;;;4.23;2.77;;;;;;;22.04;91.91;97468.69;5035000;28;20683;-73
2023/09/18 01:52:10;;;;;;;6.23;2.50;;;;;;;22.22;89.60;97502.94;5034854;28;20206;-73
2023/09/18 01:54:36;;;;;;;3.03;2.50;;;;;;;22.47;86.81;97483.41;5035104;28;20210;-73
2023/09/18 01:57:03;;;;;;;3.30;2.43;;;;;;;22.58;84.75;97476.63;5034668;28;20212;-73
2023/09/18 01:59:30;;;;;;;3.67;2.47;;;;;;;22.62;88.94;97447.81;5034559;28;20225;-73
2023/09/18 02:01:56;;;;;;;5.97;2.60;;;;;;;22.46;92.67;97449.28;5034955;28;20205;-73
2023/09/18 02:04:25;;;;;;;3.72;2.63;;;;;;;22.30;94.81;97446.13;5034923;28;20233;-73
2023/09/18 02:06:51;;;;;;;5.10;2.63;;;;;;;22.43;87.11;97434.41;5034830;28;20259;-73
2023/09/18 02:09:18;;;;;;;5.50;2.22;;;;;;;22.20;97.18;97416.59;5034751;28;20225;-73
2023/09/18 02:11:47;;;;;;;4.68;2.13;;;;;;;22.15;98.36;97400.47;5034388;28;20561;-73
2023/09/18 02:14:14;;;;;;;4.03;2.30;;;;;;;22.01;100.00;97385.38;5034727;28;20212;-73
2023/09/18 02:16:43;;;;;;;4.32;2.40;;;;;;;22.04;100.00;97345.00;5034612;28;20214;-73
2023/09/18 02:19:10;;;;;;;7.63;2.33;;;;;;;21.72;100.00;97318.19;5034592;28;20275;-73
2023/09/18 02:21:37;;;;;;;6.80;2.90;;;;;;;21.54;100.00;97323.72;5034251;28;20665;-73
2023/09/18 02:24:03;;;;;;;8.43;3.07;;;;;;;21.54;100.00;97340.78;5033863;28;20209;-73
2023/09/18 02:26:31;;;;;;;5.43;2.70;;;;;;;21.43;100.00;97357.53;5034551;28;20592;-73
2023/09/18 02:29:00;;;;;;;7.30;2.83;;;;;;;21.47;100.00;97358.53;5034412;28;20229;-73
2023/09/18 02:31:27;;;;;;;5.50;2.77;;;;;;;21.44;100.00;97372.66;5034312;28;20222;-73
2023/09/18 02:33:53;;;;;;;7.87;2.70;;;;;;;21.44;100.00;97367.25;5034041;28;20734;-73
2023/09/18 02:36:19;;;;;;;7.07;2.70;;;;;;;21.32;100.00;97361.56;5034009;28;20672;-73
2023/09/18 02:38:46;;;;;;;4.90;2.30;;;;;;;21.34;100.00;97368.25;5034236;28;20233;-73
2023/09/18 02:41:12;;;;;;;7.23;2.47;;;;;;;21.28;100.00;97379.47;5034152;28;20202;-73
2023/09/18 02:43:38;;;;;;;7.37;3.13;;;;;;;21.55;100.00;97396.47;5034082;28;20213;-73
2023/09/18 02:46:06;;;;;;;6.17;2.83;;;;;;;21.71;100.00;97405.84;5034019;28;20205;-73
2023/09/18 02:48:32;;;;;;;7.37;2.70;;;;;;;21.50;100.00;97403.88;5034000;28;20229;-73
2023/09/18 02:51:01;;;;;;;4.93;2.27;;;;;;;21.46;100.00;97402.88;5033962;28;20248;-73
2023/09/18 02:53:27;;;;;;;7.40;3.00;;;;;;;21.45;100.00;97406.69;5033684;28;20217;-73
2023/09/18 02:55:55;;;;;;;6.60;2.60;;;;;;;21.48;100.00;97406.09;5033690;28;20210;-73
2023/09/18 02:58:25;;;;;;;7.97;2.80;;;;;;;21.43;100.00;97398.88;5033492;28;20730;-73
2023/09/18 03:00:53;;;;;;;9.97;3.33;;;;;;;21.40;100.00;97404.91;5033851;28;20296;-73
2023/09/18 03:03:20;;;;;;;13.00;3.10;;;;;;;21.45;100.00;97404.81;5033533;28;20665;-73
2023/09/18 03:05:46;;;;;;;10.67;3.53;;;;;;;21.40;100.00;97409.50;5033782;28;20221;-73
2023/09/18 03:08:15;;;;;;;8.80;3.43;;;;;;;21.11;100.00;97412.53;5033339;28;20231;-73
2023/09/18 03:10:43;;;;;;;7.00;2.83;;;;;;;21.09;100.00;97401.25;5033259;28;20229;-73
2023/09/18 03:13:11;;;;;;;8.10;3.00;;;;;;;21.12;100.00;97389.81;5033596;28;20212;-73
2023/09/18 03:15:38;;;;;;;8.77;2.87;;;;;;;21.10;100.00;97389.34;5033704;28;20212;-73
2023/09/18 03:18:06;;;;;;;8.37;3.00;;;;;;;21.03;100.00;97394.31;5033553;28;20230;-73
2023/09/18 03:20:33;;;;;;;8.73;2.83;;;;;;;21.05;100.00;97396.72;5033301;28;20606;-73
2023/09/18 03:23:01;;;;;;;5.67;2.60;;;;;;;20.98;100.00;97405.25;5033300;28;20669;-73
2023/09/18 03:25:28;;;;;;;10.37;3.00;;;;;;;20.93;100.00;97394.53;5033410;28;20205;-73
2023/09/18 03:27:57;;;;;;;9.97;3.10;;;;;;;21.04;100.00;97395.94;5033052;28;20229;-73
2023/09/18 03:30:25;;;;;;;10.13;3.20;;;;;;;20.92;100.00;97403.75;5033387;28;20229;-73
2023/09/18 03:32:52;;;;;;;8.67;3.10;;;;;;;20.87;100.00;97403.81;5033285;28;20221;-73
2023/09/18 03:35:18;;;;;;;5.57;2.93;;;;;;;20.77;100.00;97401.31;5034258;28;20546;-73
2023/09/18 03:37:46;;;;;;;6.00;2.80;;;;;;;20.72;100.00;97414.13;5037053;28;20710;-73
2023/09/18 03:40:12;;;;;;;9.53;2.70;;;;;;;20.67;100.00;97419.63;5037440;28;20197;-73
2023/09/18 03:42:39;;;;;;;6.60;2.67;;;;;;;20.64;100.00;97417.50;5037334;28;20206;-73
2023/09/18 03:45:09;;;;;;;7.50;2.60;;;;;;;20.60;100.00;97425.41;5037180;28;20571;-73
2023/09/18 03:47:40;;;;;;;8.50;2.83;;;;;;;20.63;100.00;97448.31;5036915;28;20232;-73
2023/09/18 03:50:08;;;;;;;8.17;2.80;;;;;;;20.68;100.00;97480.63;5036888;28;20665;-73
2023/09/18 03:52:35;;;;;;;7.33;3.00;;;;;;;20.73;100.00;97486.75;5037036;28;20539;-73
2023/09/18 03:55:01;;;;;;;5.50;2.73;;;;;;;20.83;100.00;97499.28;5037304;28;20619;-73
2023/09/18 03:57:28;;;;;;;5.70;2.87;;;;;;;20.87;100.00;97505.69;5036877;28;20590;-73
2023/09/18 03:59:54;;;;;;;8.83;3.00;;;;;;;20.82;100.00;97522.81;5037112;28;20204;-73
2023/09/18 04:02:24;;;;;;;7.67;2.70;;;;;;;20.78;100.00;97524.50;5036678;28;20568;-73
2023/09/18 04:04:50;;;;;;;5.37;2.60;;;;;;;20.73;100.00;97526.47;5037097;28;20209;-73
2023/09/18 04:07:19;;;;;;;7.97;2.67;;;;;;;20.83;100.00;97531.69;5036920;28;20222;-73
2023/09/18 04:09:45;;;;;;;8.37;2.70;;;;;;;20.77;100.00;97531.00;5036937;28;20212;-73
2023/09/18 04:12:11;;;;;;;6.30;2.40;;;;;;;20.90;100.00;97524.00;5036784;28;20238;-73
2023/09/18 04:14:39;;;;;;;9.43;2.60;;;;;;;21.11;100.00;97517.19;5036855;28;20201;-73
2023/09/18 04:17:05;;;;;;;5.70;2.60;;;;;;;21.13;100.00;97509.56;5036605;28;20208;-73
2023/09/18 04:19:32;;;;;;;5.73;2.07;;;;;;;21.13;100.00;97509.56;5036354;28;20213;-73
2023/09/18 04:21:58;;;;;;;7.17;2.50;;;;;;;21.06;100.00;97503.75;5036655;28;20205;-73
2023/09/18 04:24:27;;;;;;;6.20;2.70;;;;;;;20.99;100.00;97496.06;5036531;28;20202;-73
2023/09/18 04:26:53;;;;;;;9.30;2.80;;;;;;;20.92;100.00;97479.41;5036097;28;20206;-73
2023/09/18 04:29:20;;;;;;;5.97;2.57;;;;;;;20.62;100.00;97468.31;5036272;28;20206;-73
2023/09/18 04:31:48;;;;;;;8.33;2.57;;;;;;;20.70;100.00;97470.34;5035631;28;20217;-73
2023/09/18 04:34:14;;;;;;;7.60;2.90;;;;;;;20.48;100.00;97456.69;5036254;28;20260;-73
2023/09/18 04:36:41;;;;;;;7.63;2.80;;;;;;;20.57;100.00;97441.41;5036374;28;20256;-73
2023/09/18 04:39:09;;;;;;;6.13;2.70;;;;;;;20.63;100.00;97415.91;5036279;28;20335;-73
2023/09/18 04:41:35;;;;;;;8.43;3.07;;;;;;;20.77;100.00;97379.72;5035813;28;20228;-73
2023/09/18 04:44:02;;;;;;;7.37;2.87;;;;;;;20.64;100.00;97367.00;5035821;28;20209;-73
2023/09/18 04:46:30;;;;;;;7.77;2.80;;;;;;;20.60;100.00;97401.09;5035566;28;20210;-73
2023/09/18 04:48:56;;;;;;;8.97;3.07;;;;;;;20.51;100.00;97397.50;5035920;28;20230;-73
2023/09/18 04:51:22;;;;;;;5.50;2.90;;;;;;;20.66;100.00;97377.50;5035815;28;20230;-73
2023/09/18 04:53:49;;;;;;;8.53;2.80;;;;;;;20.49;100.00;97377.28;5035892;28;20212;-73
2023/09/18 04:56:15;;;;;;;6.20;3.10;;;;;;;20.51;100.00;97388.56;5035871;28;20210;-73
2023/09/18 04:58:42;;;;;;;7.87;3.30;;;;;;;20.61;100.00;97391.09;5035458;28;20299;-73
2023/09/18 05:01:08;;;;;;;8.00;3.23;;;;;;;20.61;100.00;97401.91;5035402;28;20202;-74
2023/09/18 05:03:35;;;;;;;9.13;3.30;;;;;;;20.60;100.00;97411.09;5034962;28;20221;-73
2023/09/18 05:06:03;;;;;;;7.20;3.17;;;;;;;20.56;100.00;97412.78;5035044;28;20210;-73
2023/09/18 05:08:30;;;;;;;6.07;3.20;;;;;;;20.55;100.00;97412.00;5035520;28;20226;-73
2023/09/18 05:10:57;;;;;;;11.50;3.33;;;;;;;20.45;100.00;97395.16;5035642;28;20230;-73
2023/09/18 05:13:23;;;;;;;7.77;3.50;;;;;;;20.41;100.00;97391.47;5035593;28;20210;-73
2023/09/18 05:15:50;;;;;;;8.53;3.30;;;;;;;20.42;100.00;97391.16;5034935;28;20546;-73
2023/09/18 05:18:16;;;;;;;7.57;3.77;;;;;;;20.47;100.00;97398.38;5034586;28;20819;-73
2023/09/18 05:20:43;;;;;;;9.50;3.77;;;;;;;20.47;100.00;97401.88;5035146;28;20205;-72
2023/09/18 05:23:09;;;;;;;7.43;3.23;;;;;;;20.42;100.00;97415.47;5035002;28;20208;-72
2023/09/18 05:25:38;;;;;;;6.70;3.47;;;;;;;20.41;100.00;97443.56;5034813;28;20206;-73
2023/09/18 05:28:05;;;;;;;10.23;3.53;;;;;;;20.47;100.00;97458.59;5034706;28;20230;-73
2023/09/18 05:30:34;;;;;;;11.40;4.07;;;;;;;20.50;100.00;97462.59;5034944;28;20205;-73
2023/09/18 05:33:04;;;;;;;8.20;3.27;;;;;;;20.71;100.00;97432.22;5035145;28;20213;-73
2023/09/18 05:35:36;;;;;;;7.13;3.17;;;;;;;20.59;100.00;97429.22;5034861;28;20194;-73
2023/09/18 05:38:03;;;;;;;8.93;3.30;;;;;;;20.64;100.00;97428.31;5035024;28;20237;-73
2023/09/18 05:40:30;;;;;;;12.77;3.40;;;;;;;20.75;100.00;97429.75;5034765;28;20259;-73
2023/09/18 05:42:57;;;;;;;8.93;3.30;;;;;;;20.81;100.00;97439.34;5034840;28;20206;-73
2023/09/18 05:45:23;;;;;;;8.27;2.90;;;;;;;20.81;100.00;97439.34;5034818;28;20212;-73
2023/09/18 05:47:51;;;;;;;5.80;2.43;;;;;;;20.83;100.00;97435.25;5034207;28;20226;-73
2023/09/18 05:50:17;;;;;;;8.47;3.00;;;;;;;20.78;100.00;97445.31;5034822;28;20205;-73
2023/09/18 05:52:48;;;;;;;6.57;2.73;;;;;;;20.87;100.00;97447.06;5034901;28;20230;-73
2023/09/18 05:55:16;;;;;;;6.97;2.97;;;;;;;20.79;100.00;97439.63;5034673;28;20206;-73
2023/09/18 05:57:42;;;;;;;6.80;2.40;;;;;;;20.78;100.00;97442.63;5034443;28;20253;-73
2023/09/18 06:00:12;;;;;;;9.50;2.73;;;;;;;20.73;100.00;97430.03;5033767;28;20194;-73
2023/09/18 06:02:39;;;;;;;8.10;3.10;;;;;;;20.79;100.00;97426.13;5034804;28;20206;-73
2023/09/18 06:05:06;;;;;;;10.53;3.50;;;;;;;20.79;100.00;97431.53;5034137;28;20206;-73
2023/09/18 06:07:33;;;;;;;7.57;3.07;;;;;;;20.79;100.00;97444.25;5033878;28;20230;-73
2023/09/18 06:10:00;;;;;;;10.17;2.90;;;;;;;20.79;100.00;97426.13;5034589;28;20206;-73
2023/09/18 06:12:26;;;;;;;6.87;3.10;;;;;;;20.75;100.00;97411.59;5034255;28;20232;-73
2023/09/18 06:14:53;;;;;;;7.63;3.13;;;;;;;20.77;100.00;97408.63;5033712;28;20681;-73
2023/09/18 06:17:19;;;;;;;8.80;3.47;;;;;;;20.73;100.00;97419.22;5033846;28;20226;-73
2023/09/18 06:19:46;;;;;;;8.80;3.57;;;;;;;20.62;100.00;97412.38;5034165;28;20209;-73
2023/09/18 06:22:13;;;;;;;8.90;3.70;;;;;;;20.57;100.00;97411.72;5033839;28;20572;-73
2023/09/18 06:24:40;;;;;;;9.50;4.00;;;;;;;20.52;100.00;97417.19;5033900;28;20206;-73
2023/09/18 06:27:06;;;;;;;6.50;3.30;;;;;;;20.48;100.00;97427.00;5033694;28;20210;-73
2023/09/18 06:29:34;;;;;;;8.53;2.97;;;;;;;20.44;100.00;97426.75;5033907;28;20220;-73
2023/09/18 06:32:00;;;;;;;5.40;3.00;;;;;;;20.58;100.00;97430.28;5033837;28;20328;-73
2023/09/18 06:34:27;;;;;;;6.97;3.50;;;;;;;20.37;100.00;97439.03;5033724;28;20242;-74
2023/09/18 06:36:54;;;;;;;7.17;3.50;;;;;;;20.33;100.00;97430.75;5033460;28;20268;-73
2023/09/18 06:39:22;;;;;;;6.57;2.47;;;;;;;20.35;100.00;97436.63;5033461;28;20213;-73
2023/09/18 06:41:48;;;;;;;7.03;3.63;;;;;;;20.41;100.00;97429.25;5033668;28;20221;-73
2023/09/18 06:44:15;;;;;;;8.63;3.10;;;;;;;20.49;100.00;97436.69;5033699;28;20212;-73
2023/09/18 06:46:41;;;;;;;8.30;3.03;;;;;;;20.64;100.00;97420.19;5033920;28;20206;-73
2023/09/18 06:49:08;;;;;;;7.53;2.90;;;;;;;20.45;100.00;97452.69;5033481;28;20321;-72
2023/09/18 06:51:34;;;;;;;8.70;2.97;;;;;;;20.43;100.00;97454.09;5033329;28;20714;-72
2023/09/18 06:54:02;;;;;;;6.53;3.07;;;;;;;20.48;100.00;97456.69;5033764;28;20208;-72
2023/09/18 06:56:29;;;;;;;6.50;3.07;;;;;;;20.47;100.00;97455.06;5033223;28;20685;-72
2023/09/18 06:58:55;;;;;;;8.20;3.20;;;;;;;20.57;100.00;97454.91;5032704;28;20230;-72
2023/09/18 07:01:24;;;;;;;6.47;2.87;;;;;;;20.46;100.00;97448.88;5033302;28;20229;-72
2023/09/18 07:03:51;;;;;;;6.80;3.17;;;;;;;20.41;100.00;97464.38;5015791;28;20209;-72
2023/09/18 07:06:19;;;;;;;6.37;3.20;;;;;;;20.57;100.00;97450.31;5033035;28;20255;-72
2023/09/18 07:08:46;;;;;;;8.50;3.53;;;;;;;20.40;100.00;97449.25;5032963;28;20594;-73
2023/09/18 07:11:12;;;;;;;7.63;3.23;;;;;;;20.37;100.00;97445.25;5032904;28;20229;-72
2023/09/18 07:13:39;;;;;;;7.17;3.20;;;;;;;20.53;100.00;97456.59;5033131;28;20548;-72
2023/09/18 07:16:07;;;;;;;9.00;3.30;;;;;;;20.54;100.00;97459.00;5033374;28;20213;-72
2023/09/18 07:18:33;;;;;;;9.73;3.23;;;;;;;20.69;100.00;97447.13;5033192;28;20226;-73
2023/09/18 07:21:00;;;;;;;7.53;3.30;;;;;;;20.74;100.00;97444.31;5033392;28;20212;-73
2023/09/18 07:23:26;;;;;;;7.10;2.43;;;;;;;20.85;100.00;97440.34;5033760;28;20545;-72
2023/09/18 07:25:52;;;;;;;8.33;3.37;;;;;;;20.66;100.00;97439.63;5033310;28;20661;-72
2023/09/18 07:28:19;;;;;;;5.97;2.90;;;;;;;20.73;100.00;97440.03;5032929;28;20226;-72
2023/09/18 07:30:46;;;;;;;10.93;3.03;;;;;;;20.77;100.00;97449.13;5033480;28;20259;-72
2023/09/18 07:33:15;;;;;;;6.57;3.10;;;;;;;20.73;100.00;97453.53;5033053;28;20230;-72
2023/09/18 07:35:43;;;;;;;5.00;2.50;;;;;;;20.80;100.00;97453.97;5033001;28;20300;-72
2023/09/18 07:38:09;;;;;;;8.37;2.30;;;;;;;20.78;100.00;97461.53;5033001;28;20230;-72
2023/09/18 07:40:36;;;;;;;7.07;2.20;;;;;;;20.79;100.00;97463.16;5032979;28;20212;-72
2023/09/18 07:43:02;;;;;;;6.33;1.97;;;;;;;20.87;100.00;97470.56;5032949;28;20229;-72
2023/09/18 07:45:28;;;;;;;6.80;2.03;;;;;;;20.95;100.00;97491.53;5032889;28;20211;-72
2023/09/18 07:47:55;;;;;;;4.30;1.50;;;;;;;20.86;100.00;97496.78;5032983;28;20226;-72
2023/09/18 07:50:21;;;;;;;3.67;1.43;;;;;;;21.09;100.00;97513.97;5033147;28;20202;-72
2023/09/18 07:52:47;;;;;;;4.33;1.40;;;;;;;21.26;100.00;97519.59;5032660;28;20226;-72
2023/09/18 07:55:14;;;;;;;4.90;1.40;;;;;;;21.30;100.00;97526.78;5032818;28;20205;-73
2023/09/18 07:57:41;;;;;;;2.77;1.40;;;;;;;21.44;100.00;97526.81;5033253;28;20237;-72
2023/09/18 08:00:12;;;;;;;1.37;1.10;;;;;;;21.49;100.00;97529.41;5033218;28;20205;-72
2023/09/18 08:02:41;;;;;;;5.77;1.60;;;;;;;21.63;100.00;97519.38;5033325;28;20281;-72
2023/09/18 08:05:08;;;;;;;5.00;1.70;;;;;;;21.86;100.00;97521.06;5033078;28;20212;-72
2023/09/18 08:07:36;;;;;;;5.63;2.00;;;;;;;21.89;100.00;97512.38;5032851;28;20271;-72
2023/09/18 08:10:06;;;;;;;7.53;2.00;;;;;;;21.74;100.00;97524.31;5033144;28;20210;-72
2023/09/18 08:12:32;;;;;;;3.33;1.80;;;;;;;21.60;100.00;97539.72;5032895;28;20635;-72
2023/09/18 08:14:59;;;;;;;5.90;1.97;;;;;;;21.64;100.00;97542.63;5032798;28;20216;-73
2023/09/18 08:17:26;;;;;;;3.43;1.30;;;;;;;21.57;100.00;97545.72;5032793;28;20226;-73
2023/09/18 08:19:54;;;;;;;2.67;1.70;;;;;;;21.61;100.00;97549.44;5032669;28;20210;-73
2023/09/18 08:22:21;;;;;;;4.50;1.37;;;;;;;21.64;100.00;97556.94;5034265;28;20234;-73
2023/09/18 08:24:48;;;;;;;5.17;1.30;;;;;;;21.67;100.00;97555.56;5036340;28;20623;-73
2023/09/18 08:27:17;;;;;;;3.57;1.63;;;;;;;21.57;100.00;97567.38;5036015;28;20664;-73
2023/09/18 08:29:45;;;;;;;2.57;1.40;;;;;;;21.46;100.00;97593.00;5036507;28;20212;-73
2023/09/18 08:32:11;;;;;;;3.20;1.40;;;;;;;21.39;100.00;97605.34;5036345;28;20221;-73
2023/09/18 08:34:38;;;;;;;2.13;1.20;;;;;;;21.48;100.00;97625.19;5036226;28;20288;-73
2023/09/18 08:37:04;;;;;;;2.87;1.30;;;;;;;21.47;100.00;97615.47;5036006;28;20210;-73
2023/09/18 08:39:32;;;;;;;2.85;1.60;;;;;;;21.40;100.00;97609.63;5036313;28;20216;-73
2023/09/18 08:42:04;;;;;;;1.47;1.10;;;;;;;21.38;100.00;97596.41;5035998;28;20669;-73
2023/09/18 08:44:31;;;;;;;3.90;2.10;;;;;;;21.18;100.00;97604.09;5036273;28;20240;-73
2023/09/18 08:46:59;;;;;;;3.50;1.20;;;;;;;20.92;100.00;97605.59;5035947;28;20688;-73
2023/09/18 08:49:26;;;;;;;1.87;1.17;;;;;;;20.64;100.00;97607.38;5036258;28;20249;-73
2023/09/18 08:51:55;;;;;;;2.50;1.30;;;;;;;20.59;100.00;97609.34;5036042;28;20229;-73
2023/09/18 08:54:23;;;;;;;3.73;1.40;;;;;;;20.60;100.00;97600.97;5035499;28;20687;-73
2023/09/18 08:56:52;;;;;;;4.40;1.60;;;;;;;20.61;100.00;97601.78;5035901;28;20210;-73
2023/09/18 08:59:21;;;;;;;2.93;1.23;;;;;;;20.48;100.00;97600.59;5035173;28;20238;-73
2023/09/18 09:01:47;;;;;;;3.00;1.33;;;;;;;20.43;100.00;97594.50;5035930;28;20265;-73
2023/09/18 09:04:14;;;;;;;2.77;1.43;;;;;;;20.16;100.00;97592.44;5035869;28;20216;-73
2023/09/18 09:06:40;;;;;;;6.17;1.50;;;;;;;19.89;100.00;97599.53;5035565;28;20723;-73
2023/09/18 09:09:07;;;;;;;4.17;1.23;;;;;;;19.93;100.00;97614.03;5035485;28;20708;-73
2023/09/18 09:11:34;;;;;;;7.23;1.50;;;;;;;19.94;100.00;97618.34;5035395;28;20284;-73
2023/09/18 09:14:18;;;;;;;5.67;1.43;;;;;;;19.77;100.00;97614.22;5035595;28;20212;-73
2023/09/18 09:16:49;;;;;;;4.63;1.30;;;;;;;19.90;100.00;97615.41;5035741;28;20201;-73
2023/09/18 09:19:19;;;;;;;3.73;1.47;;;;;;;19.86;100.00;97621.66;5035216;28;20708;-73
2023/09/18 09:21:46;;;;;;;4.43;1.50;;;;;;;19.95;100.00;97606.44;5035296;28;20568;-73
2023/09/18 09:24:13;;;;;;;3.77;1.50;;;;;;;20.00;100.00;97601.81;5035471;28;20339;-73
2023/09/18 09:26:43;;;;;;;3.17;1.30;;;;;;;20.06;100.00;97605.22;5035419;28;20260;-73
2023/09/18 09:29:18;;;;;;;5.23;1.40;;;;;;;19.94;100.00;97621.03;5035139;28;20226;-73
2023/09/18 09:31:46;;;;;;;3.87;1.30;;;;;;;19.89;100.00;97611.09;5034887;28;20713;-73
2023/09/18 09:34:12;;;;;;;3.67;1.20;;;;;;;19.52;100.00;97611.81;5034846;28;20598;-73
2023/09/18 09:36:55;;;;;;;3.67;1.30;;;;;;;19.55;100.00;97624.69;5035165;28;20220;-73
2023/09/18 09:39:24;;;;;;;4.77;1.63;;;;;;;19.46;100.00;97620.25;5035259;28;20592;-73
2023/09/18 09:41:53;;;;;;;2.13;1.30;;;;;;;19.57;100.00;97607.47;5034822;28;20665;-73
2023/09/18 09:44:20;;;;;;;2.93;1.40;;;;;;;19.69;100.00;97597.88;5034621;28;20205;-73
2023/09/18 09:46:51;;;;;;;1.63;1.30;;;;;;;19.68;100.00;97588.97;5035648;28;20206;-73
2023/09/18 09:49:19;;;;;;;1.53;1.20;;;;;;;19.62;100.00;97583.13;5035531;28;20252;-73
2023/09/18 09:51:46;;;;;;;3.73;1.23;;;;;;;19.63;100.00;97580.94;5034878;28;20245;-73
2023/09/18 09:54:14;;;;;;;1.63;1.33;;;;;;;19.84;100.00;97580.72;5034963;28;20206;-73
2023/09/18 09:56:50;;;;;;;4.83;1.60;;;;;;;19.93;100.00;97582.44;5034901;28;20259;-73
2023/09/18 09:59:18;;;;;;;3.93;1.50;;;;;;;20.00;100.00;97591.00;5034304;28;20604;-73
2023/09/18 10:01:48;;;;;;;5.00;1.40;;;;;;;19.93;100.00;97571.66;5034799;28;20206;-73
2023/09/18 10:04:17;;;;;;;2.53;1.60;;;;;;;19.97;100.00;97574.56;5034519;28;20256;-73
2023/09/18 10:06:46;;;;;;;4.03;1.53;;;;;;;19.95;100.00;97584.88;5034292;28;20206;-73
2023/09/18 10:09:15;;;;;;;3.23;1.40;;;;;;;19.96;100.00;97583.78;5034206;28;20625;-73
2023/09/18 10:11:46;;;;;;;2.53;1.60;;;;;;;20.22;100.00;97582.38;5034289;28;20229;-73
2023/09/18 10:14:17;;;;;;;4.07;1.73;;;;;;;20.35;100.00;97595.13;5034615;28;20201;-73
2023/09/18 10:16:48;;;;;;;3.73;1.60;;;;;;;20.26;100.00;97600.38;5034468;28;20194;-73
2023/09/18 10:19:28;;;;;;;2.50;1.37;;;;;;;20.05;100.00;97600.91;5016060;28;20229;-73
2023/09/18 10:22:13;;;;;;;2.97;1.73;;;;;;;20.14;100.00;97618.91;5033785;28;20197;-73
2023/09/18 10:24:41;;;;;;;7.70;2.30;;;;;;;19.93;100.00;97659.91;5033924;28;20676;-73
2023/09/18 10:27:09;;;;;;;2.80;1.43;;;;;;;20.01;100.00;97653.84;5033812;28;20210;-73
2023/09/18 10:29:37;;;;;;;2.23;1.47;;;;;;;20.04;100.00;97661.38;5034245;28;20301;-73
2023/09/18 10:32:08;;;;;;;4.40;1.40;;;;;;;20.09;100.00;97659.47;5034053;28;20225;-73
2023/09/18 10:34:36;;;;;;;3.70;1.50;;;;;;;20.04;100.00;97664.91;5034201;28;20206;-73
2023/09/18 10:37:06;;;;;;;2.53;1.47;;;;;;;19.89;100.00;97658.88;5033492;28;20205;-73
2023/09/18 10:39:36;;;;;;;5.87;1.60;;;;;;;19.82;100.00;97659.22;5033329;28;20205;-73
2023/09/18 10:42:04;;;;;;;3.97;1.50;;;;;;;19.73;100.00;97642.06;5034206;28;20206;-73
2023/09/18 10:44:31;;;;;;;2.77;1.60;;;;;;;19.89;100.00;97664.28;5032935;28;20210;-73
2023/09/18 10:47:00;;;;;;;3.97;1.57;;;;;;;19.69;100.00;97670.69;5033760;28;20213;-73
2023/09/18 10:49:26;;;;;;;3.50;1.50;;;;;;;19.86;100.00;97654.03;5033330;28;20245;-73
2023/09/18 10:51:56;;;;;;;3.57;1.73;;;;;;;19.76;100.00;97633.38;5033700;28;20221;-73
2023/09/18 10:54:25;;;;;;;3.13;2.10;;;;;;;19.86;100.00;97624.38;5033394;28;20679;-73
2023/09/18 10:56:52;;;;;;;3.97;1.97;;;;;;;19.89;100.00;97623.81;5033781;28;20205;-73
2023/09/18 10:59:19;;;;;;;4.60;1.67;;;;;;;19.92;100.00;97612.41;5033368;28;20233;-73
2023/09/18 11:01:47;;;;;;;4.47;1.70;;;;;;;19.88;100.00;97612.19;5033819;28;20221;-73
2023/09/18 11:04:14;;;;;;;2.47;1.43;;;;;;;19.91;100.00;97598.13;5033589;28;20209;-73
2023/09/18 11:06:55;;;;;;;3.72;1.90;;;;;;;19.88;100.00;97597.91;5032965;28;20415;-73
2023/09/18 11:09:29;;;;;;;2.07;1.50;;;;;;;19.88;100.00;97592.50;5033184;28;20690;-73
2023/09/18 11:12:03;;;;;;;2.73;1.50;;;;;;;19.82;100.00;97599.06;5033490;28;20201;-73
2023/09/18 11:14:58;;;;;;;2.90;1.60;;;;;;;19.78;100.00;97604.22;5033559;28;20292;-73
2023/09/18 11:17:38;;;;;;;3.13;1.40;;;;;;;19.77;100.00;97618.00;5033381;28;20226;-73
2023/09/18 11:20:17;;;;;;;2.87;1.90;;;;;;;19.73;100.00;97616.97;5033360;28;20210;-73
2023/09/18 11:22:55;;;;;;;3.63;1.57;;;;;;;19.96;100.00;97614.25;5033446;28;20197;-73
2023/09/18 11:25:40;;;;;;;1.70;1.30;;;;;;;19.85;100.00;97617.38;5033401;28;20198;-73
2023/09/18 11:28:08;;;;;;;3.63;1.80;;;;;;;20.08;100.00;97620.06;5032652;28;20229;-73
2023/09/18 11:30:39;;;;;;;2.60;1.63;;;;;;;19.90;100.00;97607.31;5032503;28;20673;-73